sensor_id;sensor_type;location;lat;lon;timestamp;P1;durP1;ratioP1;P2;durP2;ratioP2
70459;SDS011;57920;54.796;9.430;2022-11-23T00:01:21;9.63;;;6.57;;
70459;SDS011;57920;54.796;9.430;2022-11-23T00:03:48;8.77;;;6.10;;
70459;SDS011;57920;54.796;9.430;2022-11-23T00:06:16;8.97;;;6.13;;
70459;SDS011;57920;54.796;9.430;2022-11-23T00:08:42;7.77;;;5.27;;
70459;SDS011;57920;54.796;9.430;2022-11-23T00:11:09;9.23;;;5.83;;
70459;SDS011;57920;54.796;9.430;2022-11-23T00:13:35;9.13;;;6.63;;
70459;SDS011;57920;54.796;9.430;2022-11-23T00:16:04;6.90;;;6.20;;
70459;SDS011;57920;54.796;9.430;2022-11-23T00:18:33;8.13;;;6.20;;
70459;SDS011;57920;54.796;9.430;2022-11-23T00:20:59;6.73;;;5.63;;
70459;SDS011;57920;54.796;9.430;2022-11-23T00:23:24;7.03;;;5.93;;
70459;SDS011;57920;54.796;9.430;2022-11-23T00:25:50;8.93;;;6.40;;
70459;SDS011;57920;54.796;9.430;2022-11-23T00:28:15;7.87;;;5.80;;
70459;SDS011;57920;54.796;9.430;2022-11-23T00:30:41;8.70;;;6.53;;
70459;SDS011;57920;54.796;9.430;2022-11-23T00:33:06;8.33;;;5.43;;
70459;SDS011;57920;54.796;9.430;2022-11-23T00:35:32;7.73;;;6.30;;
70459;SDS011;57920;54.796;9.430;2022-11-23T00:37:58;10.00;;;6.20;;
70459;SDS011;57920;54.796;9.430;2022-11-23T00:40:23;7.30;;;5.00;;
70459;SDS011;57920;54.796;9.430;2022-11-23T00:42:49;8.07;;;5.70;;
70459;SDS011;57920;54.796;9.430;2022-11-23T00:45:14;9.70;;;6.77;;
70459;SDS011;57920;54.796;9.430;2022-11-23T00:47:40;8.63;;;6.40;;
70459;SDS011;57920;54.796;9.430;2022-11-23T00:50:05;8.53;;;6.23;;
70459;SDS011;57920;54.796;9.430;2022-11-23T00:52:31;8.87;;;6.27;;
70459;SDS011;57920;54.796;9.430;2022-11-23T00:54:57;8.47;;;6.60;;
70459;SDS011;57920;54.796;9.430;2022-11-23T00:57:22;8.93;;;5.90;;
70459;SDS011;57920;54.796;9.430;2022-11-23T00:59:48;7.73;;;5.63;;
70459;SDS011;57920;54.796;9.430;2022-11-23T01:02:13;8.10;;;5.83;;
70459;SDS011;57920;54.796;9.430;2022-11-23T01:04:39;7.23;;;5.13;;
70459;SDS011;57920;54.796;9.430;2022-11-23T01:07:04;7.60;;;5.90;;
70459;SDS011;57920;54.796;9.430;2022-11-23T01:09:30;8.03;;;5.63;;
70459;SDS011;57920;54.796;9.430;2022-11-23T01:11:55;7.50;;;5.90;;
70459;SDS011;57920;54.796;9.430;2022-11-23T01:14:21;6.70;;;5.73;;
70459;SDS011;57920;54.796;9.430;2022-11-23T01:16:48;8.07;;;6.47;;
70459;SDS011;57920;54.796;9.430;2022-11-23T01:19:15;7.53;;;5.13;;
70459;SDS011;57920;54.796;9.430;2022-11-23T01:21:42;8.17;;;5.37;;
70459;SDS011;57920;54.796;9.430;2022-11-23T01:24:10;7.87;;;5.83;;
70459;SDS011;57920;54.796;9.430;2022-11-23T01:26:38;8.90;;;6.40;;
70459;SDS011;57920;54.796;9.430;2022-11-23T01:29:04;6.30;;;4.97;;
70459;SDS011;57920;54.796;9.430;2022-11-23T01:31:30;6.13;;;5.53;;
70459;SDS011;57920;54.796;9.430;2022-11-23T01:33:57;7.20;;;5.93;;
70459;SDS011;57920;54.796;9.430;2022-11-23T01:36:25;8.57;;;5.97;;
70459;SDS011;57920;54.796;9.430;2022-11-23T01:38:53;8.70;;;6.13;;
70459;SDS011;57920;54.796;9.430;2022-11-23T01:41:19;8.17;;;6.03;;
70459;SDS011;57920;54.796;9.430;2022-11-23T01:43:53;6.73;;;5.93;;
70459;SDS011;57920;54.796;9.430;2022-11-23T01:46:19;9.87;;;6.17;;
70459;SDS011;57920;54.796;9.430;2022-11-23T01:51:21;7.43;;;6.60;;
70459;SDS011;57920;54.796;9.430;2022-11-23T01:53:53;9.77;;;6.70;;
70459;SDS011;57920;54.796;9.430;2022-11-23T01:56:23;8.67;;;6.17;;
70459;SDS011;57920;54.796;9.430;2022-11-23T01:58:52;7.07;;;5.97;;
70459;SDS011;57920;54.796;9.430;2022-11-23T02:01:20;7.93;;;5.77;;
70459;SDS011;57920;54.796;9.430;2022-11-23T02:03:46;6.67;;;5.77;;
70459;SDS011;57920;54.796;9.430;2022-11-23T02:06:14;6.00;;;5.03;;
70459;SDS011;57920;54.796;9.430;2022-11-23T02:08:42;8.03;;;5.87;;
70459;SDS011;57920;54.796;9.430;2022-11-23T02:11:09;8.13;;;5.60;;
70459;SDS011;57920;54.796;9.430;2022-11-23T02:13:36;7.80;;;6.30;;
70459;SDS011;57920;54.796;9.430;2022-11-23T02:16:02;8.23;;;5.60;;
70459;SDS011;57920;54.796;9.430;2022-11-23T02:18:29;7.23;;;6.37;;
70459;SDS011;57920;54.796;9.430;2022-11-23T02:20:57;8.07;;;6.10;;
70459;SDS011;57920;54.796;9.430;2022-11-23T02:23:46;6.33;;;4.73;;
70459;SDS011;57920;54.796;9.430;2022-11-23T02:26:19;7.70;;;5.17;;
70459;SDS011;57920;54.796;9.430;2022-11-23T02:28:47;10.37;;;5.83;;
70459;SDS011;57920;54.796;9.430;2022-11-23T02:31:20;5.93;;;5.20;;
70459;SDS011;57920;54.796;9.430;2022-11-23T02:33:45;9.33;;;6.30;;
70459;SDS011;57920;54.796;9.430;2022-11-23T02:38:54;8.17;;;6.03;;
70459;SDS011;57920;54.796;9.430;2022-11-23T02:41:22;7.70;;;5.80;;
70459;SDS011;57920;54.796;9.430;2022-11-23T02:43:48;8.20;;;5.93;;
70459;SDS011;57920;54.796;9.430;2022-11-23T02:46:18;7.07;;;5.93;;
70459;SDS011;57920;54.796;9.430;2022-11-23T02:48:44;10.87;;;6.30;;
70459;SDS011;57920;54.796;9.430;2022-11-23T02:51:09;7.10;;;5.57;;
70459;SDS011;57920;54.796;9.430;2022-11-23T02:53:35;5.70;;;5.03;;
70459;SDS011;57920;54.796;9.430;2022-11-23T02:56:00;7.57;;;5.20;;
70459;SDS011;57920;54.796;9.430;2022-11-23T02:58:26;7.77;;;5.37;;
70459;SDS011;57920;54.796;9.430;2022-11-23T03:00:51;8.83;;;5.70;;
70459;SDS011;57920;54.796;9.430;2022-11-23T03:03:17;9.93;;;6.00;;
70459;SDS011;57920;54.796;9.430;2022-11-23T03:05:42;8.77;;;6.20;;
70459;SDS011;57920;54.796;9.430;2022-11-23T03:08:08;6.47;;;5.30;;
70459;SDS011;57920;54.796;9.430;2022-11-23T03:10:34;8.47;;;5.80;;
70459;SDS011;57920;54.796;9.430;2022-11-23T03:12:59;6.80;;;5.90;;
70459;SDS011;57920;54.796;9.430;2022-11-23T03:15:25;6.83;;;5.10;;
70459;SDS011;57920;54.796;9.430;2022-11-23T03:17:50;5.27;;;4.33;;
70459;SDS011;57920;54.796;9.430;2022-11-23T03:20:16;6.70;;;4.60;;
70459;SDS011;57920;54.796;9.430;2022-11-23T03:22:43;7.13;;;5.47;;
70459;SDS011;57920;54.796;9.430;2022-11-23T03:25:08;6.77;;;4.57;;
70459;SDS011;57920;54.796;9.430;2022-11-23T03:27:34;7.93;;;5.23;;
70459;SDS011;57920;54.796;9.430;2022-11-23T03:30:02;5.83;;;5.20;;
70459;SDS011;57920;54.796;9.430;2022-11-23T03:32:28;9.10;;;5.33;;
70459;SDS011;57920;54.796;9.430;2022-11-23T03:34:53;8.10;;;5.77;;
70459;SDS011;57920;54.796;9.430;2022-11-23T03:37:19;6.17;;;5.07;;
70459;SDS011;57920;54.796;9.430;2022-11-23T03:39:45;7.90;;;5.60;;
70459;SDS011;57920;54.796;9.430;2022-11-23T03:42:10;7.40;;;5.57;;
70459;SDS011;57920;54.796;9.430;2022-11-23T03:44:36;6.73;;;4.73;;
70459;SDS011;57920;54.796;9.430;2022-11-23T03:47:01;7.13;;;4.40;;
70459;SDS011;57920;54.796;9.430;2022-11-23T03:49:27;8.10;;;5.10;;
70459;SDS011;57920;54.796;9.430;2022-11-23T03:51:52;9.03;;;5.80;;
70459;SDS011;57920;54.796;9.430;2022-11-23T03:54:18;7.17;;;5.40;;
70459;SDS011;57920;54.796;9.430;2022-11-23T03:56:43;6.30;;;5.47;;
70459;SDS011;57920;54.796;9.430;2022-11-23T03:59:09;7.00;;;5.23;;
70459;SDS011;57920;54.796;9.430;2022-11-23T04:01:35;7.00;;;5.67;;
70459;SDS011;57920;54.796;9.430;2022-11-23T04:04:01;7.37;;;5.63;;
70459;SDS011;57920;54.796;9.430;2022-11-23T04:06:27;8.50;;;5.43;;
70459;SDS011;57920;54.796;9.430;2022-11-23T04:08:52;9.60;;;5.47;;
70459;SDS011;57920;54.796;9.430;2022-11-23T04:11:18;8.47;;;5.27;;
70459;SDS011;57920;54.796;9.430;2022-11-23T04:13:43;8.53;;;5.80;;
70459;SDS011;57920;54.796;9.430;2022-11-23T04:16:09;7.53;;;5.50;;
70459;SDS011;57920;54.796;9.430;2022-11-23T04:18:34;6.00;;;5.33;;
70459;SDS011;57920;54.796;9.430;2022-11-23T04:21:00;9.70;;;5.97;;
70459;SDS011;57920;54.796;9.430;2022-11-23T04:23:25;6.93;;;5.43;;
70459;SDS011;57920;54.796;9.430;2022-11-23T04:25:51;5.90;;;4.87;;
70459;SDS011;57920;54.796;9.430;2022-11-23T04:28:16;8.03;;;5.57;;
70459;SDS011;57920;54.796;9.430;2022-11-23T04:30:42;7.40;;;5.90;;
70459;SDS011;57920;54.796;9.430;2022-11-23T04:33:07;5.77;;;4.70;;
70459;SDS011;57920;54.796;9.430;2022-11-23T04:35:34;8.50;;;5.90;;
70459;SDS011;57920;54.796;9.430;2022-11-23T04:38:00;8.27;;;5.97;;
70459;SDS011;57920;54.796;9.430;2022-11-23T04:40:26;7.43;;;5.50;;
70459;SDS011;57920;54.796;9.430;2022-11-23T04:42:52;7.90;;;5.80;;
70459;SDS011;57920;54.796;9.430;2022-11-23T04:45:18;7.60;;;4.77;;
70459;SDS011;57920;54.796;9.430;2022-11-23T04:47:44;8.53;;;5.53;;
70459;SDS011;57920;54.796;9.430;2022-11-23T04:50:09;6.03;;;4.90;;
70459;SDS011;57920;54.796;9.430;2022-11-23T04:52:35;7.10;;;5.13;;
70459;SDS011;57920;54.796;9.430;2022-11-23T04:55:00;7.60;;;5.83;;
70459;SDS011;57920;54.796;9.430;2022-11-23T04:57:26;5.23;;;4.00;;
70459;SDS011;57920;54.796;9.430;2022-11-23T04:59:51;7.23;;;5.03;;
70459;SDS011;57920;54.796;9.430;2022-11-23T05:02:17;8.43;;;5.23;;
70459;SDS011;57920;54.796;9.430;2022-11-23T05:04:42;7.07;;;4.90;;
70459;SDS011;57920;54.796;9.430;2022-11-23T05:07:08;7.57;;;5.10;;
70459;SDS011;57920;54.796;9.430;2022-11-23T05:09:33;7.33;;;4.87;;
70459;SDS011;57920;54.796;9.430;2022-11-23T05:11:59;5.63;;;3.93;;
70459;SDS011;57920;54.796;9.430;2022-11-23T05:14:24;6.00;;;4.50;;
70459;SDS011;57920;54.796;9.430;2022-11-23T05:16:50;6.90;;;5.07;;
70459;SDS011;57920;54.796;9.430;2022-11-23T05:19:15;6.20;;;5.03;;
70459;SDS011;57920;54.796;9.430;2022-11-23T05:21:41;5.87;;;4.73;;
70459;SDS011;57920;54.796;9.430;2022-11-23T05:24:06;9.33;;;5.07;;
70459;SDS011;57920;54.796;9.430;2022-11-23T05:26:32;8.00;;;5.43;;
70459;SDS011;57920;54.796;9.430;2022-11-23T05:28:58;4.80;;;4.00;;
70459;SDS011;57920;54.796;9.430;2022-11-23T05:31:23;5.80;;;4.60;;
70459;SDS011;57920;54.796;9.430;2022-11-23T05:33:49;6.47;;;4.80;;
70459;SDS011;57920;54.796;9.430;2022-11-23T05:36:14;8.47;;;4.90;;
70459;SDS011;57920;54.796;9.430;2022-11-23T05:38:40;5.60;;;4.70;;
70459;SDS011;57920;54.796;9.430;2022-11-23T05:41:06;6.57;;;4.40;;
70459;SDS011;57920;54.796;9.430;2022-11-23T05:43:31;7.27;;;4.90;;
70459;SDS011;57920;54.796;9.430;2022-11-23T05:45:58;6.17;;;4.43;;
70459;SDS011;57920;54.796;9.430;2022-11-23T05:48:24;5.87;;;5.10;;
70459;SDS011;57920;54.796;9.430;2022-11-23T05:50:50;8.17;;;5.23;;
70459;SDS011;57920;54.796;9.430;2022-11-23T05:53:15;5.53;;;3.87;;
70459;SDS011;57920;54.796;9.430;2022-11-23T05:55:41;6.73;;;4.90;;
70459;SDS011;57920;54.796;9.430;2022-11-23T05:58:07;4.80;;;4.23;;
70459;SDS011;57920;54.796;9.430;2022-11-23T06:00:32;6.27;;;4.47;;
70459;SDS011;57920;54.796;9.430;2022-11-23T06:02:58;7.87;;;5.10;;
70459;SDS011;57920;54.796;9.430;2022-11-23T06:05:25;7.10;;;4.87;;
70459;SDS011;57920;54.796;9.430;2022-11-23T06:07:51;5.63;;;4.13;;
70459;SDS011;57920;54.796;9.430;2022-11-23T06:10:17;4.30;;;3.63;;
70459;SDS011;57920;54.796;9.430;2022-11-23T06:12:43;7.13;;;5.10;;
70459;SDS011;57920;54.796;9.430;2022-11-23T06:15:10;5.63;;;4.63;;
70459;SDS011;57920;54.796;9.430;2022-11-23T06:17:36;5.93;;;5.13;;
70459;SDS011;57920;54.796;9.430;2022-11-23T06:20:03;6.30;;;4.57;;
70459;SDS011;57920;54.796;9.430;2022-11-23T06:22:29;6.37;;;4.90;;
70459;SDS011;57920;54.796;9.430;2022-11-23T06:24:55;7.20;;;4.87;;
70459;SDS011;57920;54.796;9.430;2022-11-23T06:27:20;4.50;;;3.63;;
70459;SDS011;57920;54.796;9.430;2022-11-23T06:29:46;7.13;;;5.00;;
70459;SDS011;57920;54.796;9.430;2022-11-23T06:32:12;5.97;;;4.50;;
70459;SDS011;57920;54.796;9.430;2022-11-23T06:34:37;5.37;;;4.37;;
70459;SDS011;57920;54.796;9.430;2022-11-23T06:37:03;5.33;;;3.87;;
70459;SDS011;57920;54.796;9.430;2022-11-23T06:39:29;5.67;;;4.77;;
70459;SDS011;57920;54.796;9.430;2022-11-23T06:41:54;5.07;;;3.53;;
70459;SDS011;57920;54.796;9.430;2022-11-23T06:44:20;7.87;;;4.40;;
70459;SDS011;57920;54.796;9.430;2022-11-23T06:46:45;5.80;;;4.33;;
70459;SDS011;57920;54.796;9.430;2022-11-23T06:49:11;6.17;;;4.63;;
70459;SDS011;57920;54.796;9.430;2022-11-23T06:51:36;6.50;;;5.10;;
70459;SDS011;57920;54.796;9.430;2022-11-23T06:54:02;9.30;;;4.87;;
70459;SDS011;57920;54.796;9.430;2022-11-23T06:56:29;9.73;;;5.00;;
70459;SDS011;57920;54.796;9.430;2022-11-23T06:58:55;8.37;;;4.57;;
70459;SDS011;57920;54.796;9.430;2022-11-23T07:01:24;8.30;;;4.37;;
70459;SDS011;57920;54.796;9.430;2022-11-23T07:03:49;9.77;;;4.67;;
70459;SDS011;57920;54.796;9.430;2022-11-23T07:06:15;8.73;;;5.87;;
70459;SDS011;57920;54.796;9.430;2022-11-23T07:08:40;6.30;;;4.80;;
70459;SDS011;57920;54.796;9.430;2022-11-23T07:11:09;9.27;;;5.20;;
70459;SDS011;57920;54.796;9.430;2022-11-23T07:13:36;7.90;;;5.53;;
70459;SDS011;57920;54.796;9.430;2022-11-23T07:16:02;11.00;;;5.77;;
70459;SDS011;57920;54.796;9.430;2022-11-23T07:18:28;6.50;;;5.30;;
70459;SDS011;57920;54.796;9.430;2022-11-23T07:20:55;9.53;;;5.77;;
70459;SDS011;57920;54.796;9.430;2022-11-23T07:23:22;7.47;;;5.90;;
70459;SDS011;57920;54.796;9.430;2022-11-23T07:25:47;8.87;;;5.87;;
70459;SDS011;57920;54.796;9.430;2022-11-23T07:28:13;7.00;;;5.53;;
70459;SDS011;57920;54.796;9.430;2022-11-23T07:30:39;8.47;;;5.43;;
70459;SDS011;57920;54.796;9.430;2022-11-23T07:33:06;11.00;;;5.70;;
70459;SDS011;57920;54.796;9.430;2022-11-23T07:35:33;7.20;;;5.73;;
70459;SDS011;57920;54.796;9.430;2022-11-23T07:38:00;10.27;;;5.90;;
70459;SDS011;57920;54.796;9.430;2022-11-23T07:40:27;11.43;;;6.13;;
70459;SDS011;57920;54.796;9.430;2022-11-23T07:42:58;8.80;;;5.57;;
70459;SDS011;57920;54.796;9.430;2022-11-23T07:45:25;6.93;;;4.80;;
70459;SDS011;57920;54.796;9.430;2022-11-23T07:47:57;6.60;;;4.53;;
70459;SDS011;57920;54.796;9.430;2022-11-23T07:50:30;12.40;;;6.17;;
70459;SDS011;57920;54.796;9.430;2022-11-23T07:52:56;9.03;;;6.33;;
70459;SDS011;57920;54.796;9.430;2022-11-23T07:55:22;11.13;;;6.63;;
70459;SDS011;57920;54.796;9.430;2022-11-23T07:57:51;9.97;;;6.37;;
70459;SDS011;57920;54.796;9.430;2022-11-23T08:00:18;9.20;;;5.33;;
70459;SDS011;57920;54.796;9.430;2022-11-23T08:02:45;12.23;;;6.30;;
70459;SDS011;57920;54.796;9.430;2022-11-23T08:05:10;10.50;;;5.80;;
70459;SDS011;57920;54.796;9.430;2022-11-23T08:07:37;8.70;;;5.30;;
70459;SDS011;57920;54.796;9.430;2022-11-23T08:10:03;11.00;;;5.80;;
70459;SDS011;57920;54.796;9.430;2022-11-23T08:12:28;10.23;;;6.23;;
70459;SDS011;57920;54.796;9.430;2022-11-23T08:14:54;10.57;;;6.70;;
70459;SDS011;57920;54.796;9.430;2022-11-23T08:17:20;10.87;;;6.10;;
70459;SDS011;57920;54.796;9.430;2022-11-23T08:19:45;8.90;;;6.30;;
70459;SDS011;57920;54.796;9.430;2022-11-23T08:22:11;9.90;;;6.00;;
70459;SDS011;57920;54.796;9.430;2022-11-23T08:24:36;7.53;;;5.20;;
70459;SDS011;57920;54.796;9.430;2022-11-23T08:27:02;12.40;;;6.63;;
70459;SDS011;57920;54.796;9.430;2022-11-23T08:29:28;9.67;;;5.70;;
70459;SDS011;57920;54.796;9.430;2022-11-23T08:31:54;8.60;;;5.67;;
70459;SDS011;57920;54.796;9.430;2022-11-23T08:34:19;9.30;;;6.20;;
70459;SDS011;57920;54.796;9.430;2022-11-23T08:36:45;13.53;;;5.83;;
70459;SDS011;57920;54.796;9.430;2022-11-23T08:39:12;6.90;;;4.90;;
70459;SDS011;57920;54.796;9.430;2022-11-23T08:41:38;11.23;;;5.53;;
70459;SDS011;57920;54.796;9.430;2022-11-23T08:44:05;9.00;;;5.67;;
70459;SDS011;57920;54.796;9.430;2022-11-23T08:46:32;9.13;;;6.17;;
70459;SDS011;57920;54.796;9.430;2022-11-23T08:48:58;12.17;;;6.73;;
70459;SDS011;57920;54.796;9.430;2022-11-23T08:51:23;11.03;;;6.73;;
70459;SDS011;57920;54.796;9.430;2022-11-23T08:53:49;10.63;;;7.20;;
70459;SDS011;57920;54.796;9.430;2022-11-23T08:56:15;12.63;;;7.40;;
70459;SDS011;57920;54.796;9.430;2022-11-23T08:58:41;14.13;;;6.83;;
70459;SDS011;57920;54.796;9.430;2022-11-23T09:01:18;8.83;;;6.63;;
70459;SDS011;57920;54.796;9.430;2022-11-23T09:03:44;10.90;;;7.17;;
70459;SDS011;57920;54.796;9.430;2022-11-23T09:06:10;10.63;;;7.33;;
70459;SDS011;57920;54.796;9.430;2022-11-23T09:08:36;12.17;;;6.23;;
70459;SDS011;57920;54.796;9.430;2022-11-23T09:11:02;10.97;;;6.37;;
70459;SDS011;57920;54.796;9.430;2022-11-23T09:13:30;11.80;;;6.10;;
70459;SDS011;57920;54.796;9.430;2022-11-23T09:15:56;13.73;;;6.13;;
70459;SDS011;57920;54.796;9.430;2022-11-23T09:18:26;12.80;;;6.20;;
70459;SDS011;57920;54.796;9.430;2022-11-23T09:20:54;17.00;;;5.77;;
70459;SDS011;57920;54.796;9.430;2022-11-23T09:23:21;14.43;;;5.43;;
70459;SDS011;57920;54.796;9.430;2022-11-23T09:25:46;15.63;;;5.27;;
70459;SDS011;57920;54.796;9.430;2022-11-23T09:28:14;14.57;;;5.50;;
70459;SDS011;57920;54.796;9.430;2022-11-23T09:30:40;42.03;;;8.70;;
70459;SDS011;57920;54.796;9.430;2022-11-23T09:33:12;17.30;;;6.27;;
70459;SDS011;57920;54.796;9.430;2022-11-23T09:35:38;20.60;;;7.40;;
70459;SDS011;57920;54.796;9.430;2022-11-23T09:38:04;18.93;;;6.10;;
70459;SDS011;57920;54.796;9.430;2022-11-23T09:40:31;21.73;;;7.70;;
70459;SDS011;57920;54.796;9.430;2022-11-23T09:45:52;10.43;;;4.77;;
70459;SDS011;57920;54.796;9.430;2022-11-23T09:51:17;10.03;;;4.83;;
70459;SDS011;57920;54.796;9.430;2022-11-23T09:56:55;8.83;;;4.53;;
70459;SDS011;57920;54.796;9.430;2022-11-23T09:59:27;10.70;;;4.60;;
70459;SDS011;57920;54.796;9.430;2022-11-23T10:02:05;12.07;;;4.47;;
70459;SDS011;57920;54.796;9.430;2022-11-23T10:04:43;9.63;;;4.33;;
70459;SDS011;57920;54.796;9.430;2022-11-23T10:07:24;11.70;;;4.87;;
70459;SDS011;57920;54.796;9.430;2022-11-23T10:12:27;5.37;;;3.23;;
70459;SDS011;57920;54.796;9.430;2022-11-23T10:18:01;7.13;;;3.97;;
70459;SDS011;57920;54.796;9.430;2022-11-23T10:23:51;7.87;;;3.67;;
70459;SDS011;57920;54.796;9.430;2022-11-23T10:26:27;8.57;;;4.40;;
70459;SDS011;57920;54.796;9.430;2022-11-23T10:28:56;7.37;;;4.10;;
70459;SDS011;57920;54.796;9.430;2022-11-23T10:31:36;7.50;;;4.13;;
70459;SDS011;57920;54.796;9.430;2022-11-23T10:34:12;7.13;;;4.50;;
70459;SDS011;57920;54.796;9.430;2022-11-23T10:36:41;7.50;;;4.97;;
70459;SDS011;57920;54.796;9.430;2022-11-23T10:39:23;5.83;;;4.20;;
70459;SDS011;57920;54.796;9.430;2022-11-23T10:41:51;6.87;;;4.23;;
70459;SDS011;57920;54.796;9.430;2022-11-23T10:44:31;6.57;;;4.07;;
70459;SDS011;57920;54.796;9.430;2022-11-23T10:47:02;5.43;;;3.90;;
70459;SDS011;57920;54.796;9.430;2022-11-23T10:49:29;32.23;;;7.97;;
70459;SDS011;57920;54.796;9.430;2022-11-23T10:55:08;15.20;;;5.07;;
70459;SDS011;57920;54.796;9.430;2022-11-23T10:57:41;24.80;;;7.27;;
70459;SDS011;57920;54.796;9.430;2022-11-23T11:02:38;14.23;;;6.10;;
70459;SDS011;57920;54.796;9.430;2022-11-23T11:07:54;30.87;;;7.07;;
70459;SDS011;57920;54.796;9.430;2022-11-23T11:10:32;22.67;;;5.83;;
70459;SDS011;57920;54.796;9.430;2022-11-23T11:13:20;30.00;;;8.33;;
70459;SDS011;57920;54.796;9.430;2022-11-23T11:16:04;23.37;;;7.93;;
70459;SDS011;57920;54.796;9.430;2022-11-23T11:18:40;25.57;;;7.23;;
70459;SDS011;57920;54.796;9.430;2022-11-23T11:21:51;30.83;;;7.57;;
70459;SDS011;57920;54.796;9.430;2022-11-23T11:24:04;15.73;;;5.33;;
70459;SDS011;57920;54.796;9.430;2022-11-23T11:26:38;16.87;;;5.27;;
70459;SDS011;57920;54.796;9.430;2022-11-23T11:35:34;19.47;;;8.43;;
70459;SDS011;57920;54.796;9.430;2022-11-23T11:38:10;16.20;;;8.97;;
70459;SDS011;57920;54.796;9.430;2022-11-23T11:40:53;13.97;;;7.10;;
70459;SDS011;57920;54.796;9.430;2022-11-23T11:46:11;14.07;;;6.60;;
70459;SDS011;57920;54.796;9.430;2022-11-23T11:48:47;15.70;;;6.57;;
70459;SDS011;57920;54.796;9.430;2022-11-23T11:51:19;11.87;;;6.23;;
70459;SDS011;57920;54.796;9.430;2022-11-23T11:54:17;17.97;;;7.73;;
70459;SDS011;57920;54.796;9.430;2022-11-23T11:56:51;10.93;;;6.63;;
70459;SDS011;57920;54.796;9.430;2022-11-23T12:02:18;12.43;;;6.50;;
70459;SDS011;57920;54.796;9.430;2022-11-23T12:07:32;11.27;;;6.20;;
70459;SDS011;57920;54.796;9.430;2022-11-23T12:10:17;13.40;;;5.80;;
70459;SDS011;57920;54.796;9.430;2022-11-23T12:12:43;10.00;;;4.70;;
70459;SDS011;57920;54.796;9.430;2022-11-23T12:15:23;11.47;;;6.60;;
70459;SDS011;57920;54.796;9.430;2022-11-23T12:18:02;17.93;;;7.30;;
70459;SDS011;57920;54.796;9.430;2022-11-23T12:26:13;5.93;;;4.73;;
70459;SDS011;57920;54.796;9.430;2022-11-23T12:28:51;14.20;;;6.37;;
70459;SDS011;57920;54.796;9.430;2022-11-23T12:31:45;10.50;;;6.47;;
70459;SDS011;57920;54.796;9.430;2022-11-23T12:42:19;9.37;;;5.27;;
70459;SDS011;57920;54.796;9.430;2022-11-23T12:45:05;5.37;;;4.50;;
70459;SDS011;57920;54.796;9.430;2022-11-23T12:47:56;9.57;;;4.77;;
70459;SDS011;57920;54.796;9.430;2022-11-23T12:59:03;7.53;;;4.07;;
70459;SDS011;57920;54.796;9.430;2022-11-23T13:01:36;7.40;;;4.77;;
70459;SDS011;57920;54.796;9.430;2022-11-23T13:06:44;6.27;;;3.80;;
70459;SDS011;57920;54.796;9.430;2022-11-23T13:14:28;9.53;;;4.80;;
70459;SDS011;57920;54.796;9.430;2022-11-23T13:22:56;8.23;;;3.33;;
70459;SDS011;57920;54.796;9.430;2022-11-23T13:25:27;7.10;;;4.27;;
70459;SDS011;57920;54.796;9.430;2022-11-23T13:27:57;5.60;;;4.40;;
70459;SDS011;57920;54.796;9.430;2022-11-23T13:30:31;7.57;;;4.20;;
70459;SDS011;57920;54.796;9.430;2022-11-23T13:40:38;13.97;;;4.23;;
70459;SDS011;57920;54.796;9.430;2022-11-23T13:43:12;7.67;;;3.97;;
70459;SDS011;57920;54.796;9.430;2022-11-23T13:45:41;6.77;;;3.87;;
70459;SDS011;57920;54.796;9.430;2022-11-23T13:55:55;11.37;;;4.00;;
70459;SDS011;57920;54.796;9.430;2022-11-23T14:00:53;11.50;;;4.33;;
70459;SDS011;57920;54.796;9.430;2022-11-23T14:09:17;19.27;;;5.73;;
70459;SDS011;57920;54.796;9.430;2022-11-23T14:20:33;16.20;;;4.90;;
70459;SDS011;57920;54.796;9.430;2022-11-23T14:29:16;9.47;;;4.03;;
70459;SDS011;57920;54.796;9.430;2022-11-23T14:32:11;10.03;;;3.30;;
70459;SDS011;57920;54.796;9.430;2022-11-23T14:40:24;7.17;;;3.60;;
70459;SDS011;57920;54.796;9.430;2022-11-23T14:43:13;5.20;;;2.90;;
70459;SDS011;57920;54.796;9.430;2022-11-23T14:45:43;6.37;;;3.20;;
70459;SDS011;57920;54.796;9.430;2022-11-23T14:48:25;5.00;;;2.90;;
70459;SDS011;57920;54.796;9.430;2022-11-23T14:51:00;7.90;;;2.83;;
70459;SDS011;57920;54.796;9.430;2022-11-23T14:53:41;8.60;;;2.97;;
70459;SDS011;57920;54.796;9.430;2022-11-23T14:56:21;4.37;;;3.00;;
70459;SDS011;57920;54.796;9.430;2022-11-23T14:59:07;4.20;;;2.30;;
70459;SDS011;57920;54.796;9.430;2022-11-23T15:02:05;6.00;;;3.07;;
70459;SDS011;57920;54.796;9.430;2022-11-23T15:08:01;7.63;;;2.73;;
70459;SDS011;57920;54.796;9.430;2022-11-23T15:13:47;3.17;;;2.30;;
70459;SDS011;57920;54.796;9.430;2022-11-23T15:16:14;6.63;;;2.47;;
70459;SDS011;57920;54.796;9.430;2022-11-23T15:18:42;4.70;;;3.17;;
70459;SDS011;57920;54.796;9.430;2022-11-23T15:23:50;4.63;;;2.27;;
70459;SDS011;57920;54.796;9.430;2022-11-23T15:26:18;4.80;;;2.80;;
70459;SDS011;57920;54.796;9.430;2022-11-23T15:28:54;4.93;;;2.77;;
70459;SDS011;57920;54.796;9.430;2022-11-23T15:33:46;6.37;;;2.37;;
70459;SDS011;57920;54.796;9.430;2022-11-23T15:36:15;5.53;;;2.77;;
70459;SDS011;57920;54.796;9.430;2022-11-23T15:38:45;5.27;;;2.63;;
70459;SDS011;57920;54.796;9.430;2022-11-23T15:41:11;4.10;;;3.03;;
70459;SDS011;57920;54.796;9.430;2022-11-23T15:43:37;1.90;;;1.70;;
70459;SDS011;57920;54.796;9.430;2022-11-23T15:46:19;3.87;;;2.77;;
70459;SDS011;57920;54.796;9.430;2022-11-23T15:48:49;7.17;;;2.57;;
70459;SDS011;57920;54.796;9.430;2022-11-23T15:51:23;3.03;;;2.33;;
70459;SDS011;57920;54.796;9.430;2022-11-23T15:53:50;3.23;;;2.50;;
70459;SDS011;57920;54.796;9.430;2022-11-23T15:56:20;3.43;;;2.40;;
70459;SDS011;57920;54.796;9.430;2022-11-23T15:58:55;3.57;;;2.40;;
70459;SDS011;57920;54.796;9.430;2022-11-23T16:01:27;3.47;;;2.30;;
70459;SDS011;57920;54.796;9.430;2022-11-23T16:03:59;2.90;;;2.27;;
70459;SDS011;57920;54.796;9.430;2022-11-23T16:09:00;4.63;;;2.10;;
70459;SDS011;57920;54.796;9.430;2022-11-23T16:11:28;2.67;;;2.30;;
70459;SDS011;57920;54.796;9.430;2022-11-23T16:14:16;3.83;;;2.10;;
70459;SDS011;57920;54.796;9.430;2022-11-23T16:16:45;1.60;;;1.50;;
70459;SDS011;57920;54.796;9.430;2022-11-23T16:19:31;3.23;;;2.30;;
70459;SDS011;57920;54.796;9.430;2022-11-23T16:22:02;3.63;;;2.60;;
70459;SDS011;57920;54.796;9.430;2022-11-23T16:24:31;1.97;;;1.73;;
70459;SDS011;57920;54.796;9.430;2022-11-23T16:26:59;4.13;;;2.10;;
70459;SDS011;57920;54.796;9.430;2022-11-23T16:29:26;2.30;;;2.03;;
70459;SDS011;57920;54.796;9.430;2022-11-23T16:32:02;2.03;;;1.83;;
70459;SDS011;57920;54.796;9.430;2022-11-23T16:34:31;3.30;;;2.30;;
70459;SDS011;57920;54.796;9.430;2022-11-23T16:36:57;2.20;;;2.00;;
70459;SDS011;57920;54.796;9.430;2022-11-23T16:39:27;1.90;;;1.60;;
70459;SDS011;57920;54.796;9.430;2022-11-23T16:41:53;3.00;;;2.00;;
70459;SDS011;57920;54.796;9.430;2022-11-23T16:44:19;2.50;;;1.93;;
70459;SDS011;57920;54.796;9.430;2022-11-23T16:46:45;2.77;;;1.93;;
70459;SDS011;57920;54.796;9.430;2022-11-23T16:49:15;4.37;;;2.10;;
70459;SDS011;57920;54.796;9.430;2022-11-23T16:51:42;2.97;;;1.57;;
70459;SDS011;57920;54.796;9.430;2022-11-23T16:54:08;3.00;;;1.97;;
70459;SDS011;57920;54.796;9.430;2022-11-23T16:56:34;3.33;;;1.90;;
70459;SDS011;57920;54.796;9.430;2022-11-23T16:59:00;3.80;;;2.00;;
70459;SDS011;57920;54.796;9.430;2022-11-23T17:01:35;3.60;;;2.00;;
70459;SDS011;57920;54.796;9.430;2022-11-23T17:04:02;4.60;;;2.50;;
70459;SDS011;57920;54.796;9.430;2022-11-23T17:06:27;2.30;;;1.87;;
70459;SDS011;57920;54.796;9.430;2022-11-23T17:08:53;2.57;;;2.33;;
70459;SDS011;57920;54.796;9.430;2022-11-23T17:11:20;2.17;;;1.97;;
70459;SDS011;57920;54.796;9.430;2022-11-23T17:13:47;3.83;;;2.40;;
70459;SDS011;57920;54.796;9.430;2022-11-23T17:16:14;2.50;;;2.07;;